createdAt,value
2023-03-02T00:01:03.741Z,99569.88
2023-03-02T00:03:30.758Z,99572.72
2023-03-02T00:05:57.699Z,99566.94
2023-03-02T00:08:24.187Z,99569.88
2023-03-02T00:10:50.663Z,99556.69
2023-03-02T00:13:17.158Z,99556.16
2023-03-02T00:15:43.659Z,99554.00
2023-03-02T00:18:10.130Z,99554.50
2023-03-02T00:20:36.733Z,99552.50
2023-03-02T00:23:03.135Z,99554.38
2023-03-02T00:25:29.549Z,99551.38
2023-03-02T00:27:56.050Z,99558.69
2023-03-02T00:30:22.728Z,99556.31
2023-03-02T00:32:49.222Z,99553.25
2023-03-02T00:35:15.843Z,99555.28
2023-03-02T00:37:42.340Z,99553.25
2023-03-02T00:40:09.903Z,99551.25
2023-03-02T00:42:37.154Z,99543.16
2023-03-02T00:45:05.455Z,99546.69
2023-03-02T00:47:35.843Z,99538.09
2023-03-02T00:50:03.584Z,99535.28
2023-03-02T00:52:30.992Z,99530.22
2023-03-02T00:54:57.848Z,99531.13
2023-03-02T00:57:24.726Z,99528.09
2023-03-02T00:59:51.219Z,99528.47
2023-03-02T01:02:17.846Z,99526.19
2023-03-02T01:04:44.825Z,99528.25
2023-03-02T01:07:15.849Z,99534.69
2023-03-02T01:09:44.190Z,99528.72
2023-03-02T01:12:11.321Z,99530.22
2023-03-02T01:14:39.643Z,99528.81
2023-03-02T01:17:07.043Z,99529.06
2023-03-02T01:19:33.477Z,99524.78
2023-03-02T01:22:00.007Z,99527.06
2023-03-02T01:24:26.950Z,99523.00
2023-03-02T01:26:53.393Z,99517.31
2023-03-02T01:29:19.900Z,99521.00
2023-03-02T01:31:46.384Z,99515.56
2023-03-02T01:34:12.815Z,99513.78
2023-03-02T01:36:39.443Z,99514.19
2023-03-02T01:39:05.898Z,99515.41
2023-03-02T01:41:32.338Z,99513.03
2023-03-02T01:43:58.842Z,99517.31
2023-03-02T01:46:27.303Z,99505.94
2023-03-02T01:49:01.433Z,99508.22
2023-03-02T01:51:28.988Z,99508.56
2023-03-02T01:54:00.893Z,99505.28
2023-03-02T01:56:31.670Z,99499.81
2023-03-02T01:59:03.920Z,99501.50
2023-03-02T02:01:32.529Z,99489.22
2023-03-02T02:03:58.997Z,99491.38
2023-03-02T02:06:31.666Z,99501.63
2023-03-02T02:08:58.770Z,99497.94
2023-03-02T02:11:25.674Z,99498.31
2023-03-02T02:13:56.726Z,99498.31
2023-03-02T02:16:23.363Z,99501.22
2023-03-02T02:18:49.949Z,99490.50
2023-03-02T02:21:16.500Z,99499.19
2023-03-02T02:24:03.371Z,99486.66
2023-03-02T02:26:41.765Z,99497.03
2023-03-02T02:29:22.781Z,99489.94
2023-03-02T02:31:55.340Z,99484.38
2023-03-02T02:34:25.542Z,99487.06
2023-03-02T02:36:56.179Z,99491.84
2023-03-02T02:39:28.995Z,99486.91
2023-03-02T02:41:58.454Z,99489.16
2023-03-02T02:44:25.042Z,99479.06
2023-03-02T02:46:51.515Z,99475.78
2023-03-02T02:49:38.565Z,99477.81
2023-03-02T02:52:05.994Z,99480.31
2023-03-02T02:54:33.332Z,99487.38
2023-03-02T02:57:01.862Z,99482.56
2023-03-02T02:59:33.520Z,99487.69
2023-03-02T03:02:00.038Z,99485.47
2023-03-02T03:04:29.129Z,99481.56
2023-03-02T03:07:01.267Z,99489.09
2023-03-02T03:09:28.608Z,99490.94
2023-03-02T03:11:57.451Z,99482.19
2023-03-02T03:14:29.961Z,99481.28
2023-03-02T03:16:56.617Z,99484.31
2023-03-02T03:19:32.819Z,99484.94
2023-03-02T03:22:01.235Z,99478.47
2023-03-02T03:24:29.658Z,99478.34
2023-03-02T03:26:56.764Z,99476.69
2023-03-02T03:29:24.892Z,99486.81
2023-03-02T03:31:52.618Z,99483.53
2023-03-02T03:34:19.661Z,99483.16
2023-03-02T03:36:47.747Z,99481.00
2023-03-02T03:39:15.223Z,99475.72
2023-03-02T03:41:41.674Z,99476.94
2023-03-02T03:44:08.392Z,99469.50
2023-03-02T03:46:35.668Z,99471.16
2023-03-02T03:49:03.514Z,99461.81
2023-03-02T03:51:35.047Z,99467.88
2023-03-02T03:54:08.004Z,99467.88
2023-03-02T03:56:37.938Z,99469.09
2023-03-02T03:59:07.828Z,99470.09
2023-03-02T04:01:38.749Z,99463.28
2023-03-02T04:04:06.983Z,99468.88
2023-03-02T04:06:33.895Z,99468.88
2023-03-02T04:09:04.645Z,99473.19
2023-03-02T04:11:33.260Z,99471.88
2023-03-02T04:13:59.717Z,99469.03
2023-03-02T04:16:26.367Z,99471.41
2023-03-02T04:18:52.893Z,99472.78
2023-03-02T04:21:19.397Z,99466.34
2023-03-02T04:23:45.927Z,99472.16
2023-03-02T04:26:12.405Z,99467.34
2023-03-02T04:28:39.033Z,99469.38
2023-03-02T04:31:05.638Z,99469.03
2023-03-02T04:33:32.128Z,99465.34
2023-03-02T04:35:58.661Z,99467.09
2023-03-02T04:38:29.327Z,99463.28
2023-03-02T04:40:59.006Z,99470.41
2023-03-02T04:43:25.780Z,99468.63
2023-03-02T04:45:53.840Z,99469.03
2023-03-02T04:48:21.167Z,99460.66
2023-03-02T04:50:47.598Z,99459.28
2023-03-02T04:53:14.410Z,99459.28
2023-03-02T04:55:40.958Z,99450.78
2023-03-02T04:58:07.867Z,99458.03
2023-03-02T05:00:35.306Z,99459.28
2023-03-02T05:03:03.250Z,99454.63
2023-03-02T05:05:29.852Z,99449.41
2023-03-02T05:07:58.368Z,99443.75
2023-03-02T05:10:25.961Z,99446.41
2023-03-02T05:12:58.626Z,99442.31
2023-03-02T05:15:28.335Z,99442.47
2023-03-02T05:17:55.195Z,99445.38
2023-03-02T05:20:27.374Z,99438.78
2023-03-02T05:22:55.694Z,99446.50
2023-03-02T05:25:22.623Z,99445.63
2023-03-02T05:27:49.448Z,99455.75
2023-03-02T05:30:16.015Z,99455.38
2023-03-02T05:32:42.566Z,99447.91
2023-03-02T05:35:09.589Z,99447.91
2023-03-02T05:37:36.090Z,99445.09
2023-03-02T05:40:02.655Z,99440.81
2023-03-02T05:42:29.475Z,99447.53
2023-03-02T05:44:56.046Z,99443.59
2023-03-02T05:47:23.592Z,99448.63
2023-03-02T05:49:50.020Z,99445.38
2023-03-02T05:52:16.467Z,99450.16
2023-03-02T05:54:42.879Z,99446.25
2023-03-02T05:57:09.326Z,99460.53
2023-03-02T05:59:35.869Z,99455.22
2023-03-02T06:02:02.545Z,99460.41
2023-03-02T06:04:29.083Z,99457.22
2023-03-02T06:06:55.592Z,99458.00
2023-03-02T06:09:22.408Z,99460.00
2023-03-02T06:11:48.963Z,99454.44
2023-03-02T06:14:15.575Z,99458.50
2023-03-02T06:16:42.240Z,99466.09
2023-03-02T06:19:08.774Z,99466.34
2023-03-02T06:21:35.416Z,99462.03
2023-03-02T06:24:04.534Z,99469.63
2023-03-02T06:26:31.463Z,99466.75
2023-03-02T06:28:58.837Z,99464.06
2023-03-02T06:31:25.530Z,99460.78
2023-03-02T06:33:52.190Z,99458.28
2023-03-02T06:36:18.977Z,99456.00
2023-03-02T06:38:45.627Z,99452.44
2023-03-02T06:41:12.067Z,99464.84
2023-03-02T06:43:38.521Z,99456.00
2023-03-02T06:46:05.311Z,99459.78
2023-03-02T06:48:31.856Z,99459.28
2023-03-02T06:50:58.486Z,99453.22
2023-03-02T06:53:25.124Z,99457.81
2023-03-02T06:55:51.678Z,99458.69
2023-03-02T06:58:18.181Z,99464.00
2023-03-02T07:00:44.672Z,99464.38
2023-03-02T07:03:11.225Z,99467.16
2023-03-02T07:05:37.814Z,99462.88
2023-03-02T07:08:04.426Z,99469.09
2023-03-02T07:10:30.997Z,99473.13
2023-03-02T07:12:57.870Z,99470.25
2023-03-02T07:15:24.779Z,99463.56
2023-03-02T07:17:51.366Z,99474.28
2023-03-02T07:20:18.632Z,99482.91
2023-03-02T07:22:45.508Z,99480.75
2023-03-02T07:25:12.565Z,99487.75
2023-03-02T07:27:39.250Z,99491.78
2023-03-02T07:30:06.849Z,99491.28
2023-03-02T07:32:33.435Z,99489.88
2023-03-02T07:35:00.034Z,99493.81
2023-03-02T07:37:26.508Z,99489.91
2023-03-02T07:39:53.012Z,99501.41
2023-03-02T07:42:19.488Z,99498.63
2023-03-02T07:44:45.953Z,99498.88
2023-03-02T07:47:12.480Z,99504.84
2023-03-02T07:49:39.297Z,99505.38
2023-03-02T07:52:08.974Z,99499.66
2023-03-02T07:54:35.508Z,99499.66
2023-03-02T07:57:02.014Z,99505.47
2023-03-02T07:59:29.257Z,99500.16
2023-03-02T08:01:56.522Z,99503.97
2023-03-02T08:04:23.800Z,99503.44
2023-03-02T08:06:50.412Z,99506.25
2023-03-02T08:09:17.208Z,99502.28
2023-03-02T08:11:44.770Z,99503.56
2023-03-02T08:14:11.233Z,99509.03
2023-03-02T08:16:39.233Z,99515.06
2023-03-02T08:19:06.237Z,99513.56
2023-03-02T08:21:33.619Z,99515.03
2023-03-02T08:24:00.356Z,99506.00
2023-03-02T08:26:26.828Z,99507.09
2023-03-02T08:28:53.297Z,99508.63
2023-03-02T08:31:19.901Z,99512.03
2023-03-02T08:33:46.487Z,99512.75
2023-03-02T08:36:15.464Z,99510.16
2023-03-02T08:38:42.076Z,99510.25
2023-03-02T08:41:12.051Z,99511.25
2023-03-02T08:43:38.744Z,99511.47
2023-03-02T08:46:05.873Z,99503.72
2023-03-02T08:48:32.411Z,99499.53
2023-03-02T08:51:10.048Z,99499.56
2023-03-02T08:53:38.822Z,99495.66
2023-03-02T08:56:08.505Z,99499.88
2023-03-02T08:58:34.935Z,99494.25
2023-03-02T09:01:01.431Z,99499.31
2023-03-02T09:03:27.874Z,99499.13
2023-03-02T09:05:54.604Z,99497.28
2023-03-02T09:08:21.114Z,99499.31
2023-03-02T09:10:47.571Z,99494.13
2023-03-02T09:13:14.186Z,99487.16
2023-03-02T09:15:40.641Z,99490.59
2023-03-02T09:18:07.116Z,99491.25
2023-03-02T09:20:34.510Z,99485.47
2023-03-02T09:23:01.021Z,99484.25
2023-03-02T09:25:27.431Z,99482.81
2023-03-02T09:27:53.871Z,99488.66
2023-03-02T09:30:20.303Z,99492.66
2023-03-02T09:32:48.962Z,99489.91
2023-03-02T09:35:15.668Z,99491.09
2023-03-02T09:37:44.521Z,99485.88
2023-03-02T09:40:31.469Z,99485.97
2023-03-02T09:43:08.839Z,99487.72
2023-03-02T09:46:05.496Z,99494.94
2023-03-02T09:48:38.794Z,99496.78
2023-03-02T09:51:39.291Z,99488.06
2023-03-02T09:54:10.815Z,99492.88
2023-03-02T09:56:42.213Z,99492.72
2023-03-02T09:59:17.569Z,99498.31
2023-03-02T10:02:06.547Z,99493.94
2023-03-02T10:04:39.434Z,99490.91
2023-03-02T10:07:12.517Z,99493.09
2023-03-02T10:09:39.930Z,99494.03
2023-03-02T10:12:21.500Z,99492.97
2023-03-02T10:14:55.279Z,99487.31
2023-03-02T10:17:36.860Z,99492.22
2023-03-02T10:20:16.435Z,99484.19
2023-03-02T10:22:48.296Z,99486.97
2023-03-02T10:25:23.234Z,99499.16
2023-03-02T10:27:52.325Z,99490.72
2023-03-02T10:30:29.811Z,99497.09
2023-03-02T10:32:59.975Z,99497.03
2023-03-02T10:35:27.611Z,99493.47
2023-03-02T10:38:12.115Z,99489.75
2023-03-02T10:40:43.072Z,99492.31
2023-03-02T10:43:35.959Z,99497.78
2023-03-02T10:46:05.096Z,99498.19
2023-03-02T10:48:31.596Z,99500.53
2023-03-02T10:50:59.365Z,99499.72
2023-03-02T10:53:25.914Z,99499.25
2023-03-02T10:55:53.670Z,99491.47
2023-03-02T10:58:27.112Z,99493.22
2023-03-02T11:01:02.879Z,99484.78
2023-03-02T11:03:30.074Z,99483.13
2023-03-02T11:05:57.531Z,99472.94
2023-03-02T11:08:28.819Z,99471.59
2023-03-02T11:11:01.455Z,99469.59
2023-03-02T11:13:36.242Z,99466.50
2023-03-02T11:16:18.030Z,99458.22
2023-03-02T11:18:50.228Z,99463.13
2023-03-02T11:21:35.754Z,99454.25
2023-03-02T11:24:07.556Z,99451.69
2023-03-02T11:26:48.043Z,99448.00
2023-03-02T11:29:22.873Z,99440.66
2023-03-02T11:31:50.739Z,99446.66
2023-03-02T11:34:54.349Z,99452.50
2023-03-02T11:37:23.878Z,99441.88
2023-03-02T11:39:55.569Z,99444.78
2023-03-02T11:42:35.244Z,99439.50
2023-03-02T11:45:13.723Z,99440.09
2023-03-02T11:47:44.305Z,99433.84
2023-03-02T11:50:14.779Z,99431.53
2023-03-02T11:53:10.299Z,99427.88
2023-03-02T11:55:43.395Z,99432.25
2023-03-02T11:58:17.663Z,99433.44
2023-03-02T12:00:44.608Z,99427.44
2023-03-02T12:03:17.230Z,99425.03
2023-03-02T12:06:06.882Z,99427.13
2023-03-02T12:08:35.381Z,99422.13
2023-03-02T12:11:07.649Z,99420.53
2023-03-02T12:13:40.146Z,99419.31
2023-03-02T12:16:20.614Z,99409.72
2023-03-02T12:18:48.652Z,99413.56
2023-03-02T12:21:22.789Z,99408.63
2023-03-02T12:23:49.182Z,99412.47
2023-03-02T12:26:22.209Z,99403.00
2023-03-02T12:29:07.979Z,99397.81
2023-03-02T12:31:55.187Z,99393.50
2023-03-02T12:34:21.660Z,99388.50
2023-03-02T12:36:49.335Z,99392.34
2023-03-02T12:39:53.450Z,99383.75
2023-03-02T12:42:29.450Z,99384.41
2023-03-02T12:45:41.898Z,99382.97
2023-03-02T12:48:42.901Z,99381.69
2023-03-02T12:51:22.512Z,99379.19
2023-03-02T12:53:50.416Z,99381.47
2023-03-02T12:56:24.826Z,99376.50
2023-03-02T12:58:53.250Z,99372.84
2023-03-02T13:01:25.456Z,99363.00
2023-03-02T13:03:53.234Z,99360.22
2023-03-02T13:06:21.052Z,99350.44
2023-03-02T13:08:50.613Z,99358.72
2023-03-02T13:11:46.920Z,99358.78
2023-03-02T13:14:22.446Z,99347.03
2023-03-02T13:17:02.725Z,99348.25
2023-03-02T13:19:30.699Z,99352.47
2023-03-02T13:21:58.429Z,99344.03
2023-03-02T13:24:45.081Z,99343.00
2023-03-02T13:27:30.861Z,99344.41
2023-03-02T13:30:12.032Z,99335.81
2023-03-02T13:32:40.925Z,99337.50
2023-03-02T13:35:26.314Z,99338.50
2023-03-02T13:37:58.846Z,99338.09
2023-03-02T13:40:37.798Z,99340.09
2023-03-02T13:43:08.623Z,99342.75
2023-03-02T13:45:35.240Z,99334.78
2023-03-02T13:48:15.360Z,99336.91
2023-03-02T13:50:51.227Z,99344.00
2023-03-02T13:53:17.708Z,99334.06
2023-03-02T13:55:44.180Z,99335.25
2023-03-02T13:58:16.300Z,99337.56
2023-03-02T14:00:42.821Z,99337.09
2023-03-02T14:03:28.584Z,99337.47
2023-03-02T14:05:56.036Z,99331.69
2023-03-02T14:08:22.729Z,99342.78
2023-03-02T14:10:51.717Z,99341.81
2023-03-02T14:13:42.853Z,99350.25
2023-03-02T14:16:12.539Z,99349.41
2023-03-02T14:18:46.175Z,99343.38
2023-03-02T14:21:18.348Z,99342.66
2023-03-02T14:23:45.806Z,99343.66
2023-03-02T14:26:36.512Z,99333.78
2023-03-02T14:29:26.574Z,99341.00
2023-03-02T14:31:54.579Z,99334.19
2023-03-02T14:34:21.165Z,99335.59
2023-03-02T14:36:50.227Z,99339.44
2023-03-02T14:39:23.496Z,99336.97
2023-03-02T14:41:53.686Z,99336.47
2023-03-02T14:44:20.882Z,99332.38
2023-03-02T14:46:47.581Z,99326.78
2023-03-02T14:49:14.208Z,99326.94
2023-03-02T14:51:41.534Z,99321.88
2023-03-02T14:54:11.732Z,99321.41
2023-03-02T14:56:38.195Z,99324.13
2023-03-02T14:59:04.650Z,99326.22
2023-03-02T15:01:32.220Z,99321.13
2023-03-02T15:03:58.831Z,99319.19
2023-03-02T15:06:28.135Z,99316.94
2023-03-02T15:08:59.203Z,99312.06
2023-03-02T15:11:26.626Z,99319.56
2023-03-02T15:13:53.672Z,99323.56
2023-03-02T15:16:20.477Z,99322.91
2023-03-02T15:18:50.846Z,99318.19
2023-03-02T15:21:20.160Z,99320.63
2023-03-02T15:23:46.650Z,99317.50
2023-03-02T15:26:13.610Z,99318.63
2023-03-02T15:28:40.255Z,99312.47
2023-03-02T15:31:11.094Z,99321.41
2023-03-02T15:33:37.755Z,99321.94
2023-03-02T15:36:06.393Z,99315.19
2023-03-02T15:38:34.097Z,99316.38
2023-03-02T15:41:05.753Z,99316.38
2023-03-02T15:43:33.142Z,99312.31
2023-03-02T15:46:00.763Z,99317.19
2023-03-02T15:48:27.914Z,99315.59
2023-03-02T15:51:02.060Z,99316.03
2023-03-02T15:53:29.581Z,99324.34
2023-03-02T15:55:56.332Z,99323.25
2023-03-02T15:58:23.061Z,99320.41
2023-03-02T16:00:50.103Z,99324.66
2023-03-02T16:03:17.158Z,99324.28
2023-03-02T16:05:43.620Z,99326.81
2023-03-02T16:08:10.093Z,99322.38
2023-03-02T16:10:36.729Z,99327.50
2023-03-02T16:13:06.504Z,99341.03
2023-03-02T16:15:40.263Z,99335.06
2023-03-02T16:18:10.940Z,99345.44
2023-03-02T16:20:38.653Z,99345.72
2023-03-02T16:23:07.580Z,99353.16
2023-03-02T16:25:39.821Z,99353.78
2023-03-02T16:28:07.182Z,99345.00
2023-03-02T16:30:34.393Z,99354.31
2023-03-02T16:33:03.088Z,99360.84
2023-03-02T16:35:30.798Z,99360.53
2023-03-02T16:37:57.603Z,99368.97
2023-03-02T16:40:24.394Z,99367.72
2023-03-02T16:42:53.786Z,99366.22
2023-03-02T16:45:21.677Z,99375.66
2023-03-02T16:47:48.234Z,99377.09
2023-03-02T16:50:16.102Z,99389.53
2023-03-02T16:52:43.438Z,99381.22
2023-03-02T16:55:15.634Z,99381.63
2023-03-02T16:57:42.491Z,99384.88
2023-03-02T17:00:11.610Z,99386.16
2023-03-02T17:02:38.303Z,99396.34
2023-03-02T17:05:05.002Z,99389.06
2023-03-02T17:07:31.478Z,99393.81
2023-03-02T17:09:58.023Z,99402.88
2023-03-02T17:12:24.445Z,99402.72
2023-03-02T17:14:50.892Z,99405.75
2023-03-02T17:17:17.342Z,99413.75
2023-03-02T17:19:44.074Z,99417.44
2023-03-02T17:22:10.562Z,99417.00
2023-03-02T17:24:37.201Z,99425.13
2023-03-02T17:27:05.411Z,99422.28
2023-03-02T17:29:35.221Z,99431.91
2023-03-02T17:32:01.733Z,99432.44
2023-03-02T17:34:31.171Z,99433.88
2023-03-02T17:36:59.877Z,99437.78
2023-03-02T17:39:27.804Z,99437.34
2023-03-02T17:41:54.579Z,99443.81
2023-03-02T17:44:21.457Z,99443.44
2023-03-02T17:46:47.898Z,99437.09
2023-03-02T17:49:14.329Z,99457.25
2023-03-02T17:51:40.851Z,99456.91
2023-03-02T17:54:07.424Z,99454.06
2023-03-02T17:56:34.268Z,99464.59
2023-03-02T17:59:03.206Z,99460.91
2023-03-02T18:01:29.950Z,99466.44
2023-03-02T18:03:56.669Z,99467.66
2023-03-02T18:06:23.548Z,99476.03
2023-03-02T18:08:52.073Z,99480.75
2023-03-02T18:11:21.079Z,99483.91
2023-03-02T18:13:48.155Z,99486.00
2023-03-02T18:16:14.830Z,99496.16
2023-03-02T18:18:41.273Z,99501.63
2023-03-02T18:21:07.803Z,99510.16
2023-03-02T18:23:34.550Z,99514.09
2023-03-02T18:26:01.014Z,99513.28
2023-03-02T18:28:27.553Z,99518.00
2023-03-02T18:30:54.111Z,99528.63
2023-03-02T18:33:20.628Z,99530.59
2023-03-02T18:35:47.068Z,99521.47
2023-03-02T18:38:14.017Z,99529.72
2023-03-02T18:40:40.547Z,99532.34
2023-03-02T18:43:07.063Z,99533.84
2023-03-02T18:45:33.803Z,99541.91
2023-03-02T18:48:01.051Z,99531.38
2023-03-02T18:50:28.109Z,99538.66
2023-03-02T18:52:54.626Z,99542.97
2023-03-02T18:55:23.446Z,99546.09
2023-03-02T18:57:50.435Z,99550.31
2023-03-02T19:00:20.036Z,99551.47
2023-03-02T19:02:46.495Z,99557.41
2023-03-02T19:05:12.923Z,99557.41
2023-03-02T19:07:39.597Z,99562.75
2023-03-02T19:10:06.478Z,99556.13
2023-03-02T19:12:32.940Z,99560.28
2023-03-02T19:14:59.555Z,99560.09
2023-03-02T19:17:26.009Z,99557.38
2023-03-02T19:19:52.618Z,99559.94
2023-03-02T19:22:19.182Z,99571.16
2023-03-02T19:24:46.738Z,99571.16
2023-03-02T19:27:14.009Z,99571.53
2023-03-02T19:29:41.208Z,99577.66
2023-03-02T19:32:08.314Z,99579.88
2023-03-02T19:34:34.818Z,99577.88
2023-03-02T19:37:03.174Z,99585.19
2023-03-02T19:39:29.772Z,99585.84
2023-03-02T19:41:56.329Z,99587.06
2023-03-02T19:44:25.646Z,99587.84
2023-03-02T19:46:52.175Z,99584.75
2023-03-02T19:49:18.724Z,99580.09
2023-03-02T19:51:45.242Z,99569.25
2023-03-02T19:54:11.742Z,99580.63
2023-03-02T19:56:40.198Z,99581.41
2023-03-02T19:59:07.860Z,99583.63
2023-03-02T20:01:34.341Z,99587.19
2023-03-02T20:04:01.027Z,99588.00
2023-03-02T20:06:33.264Z,99584.03
2023-03-02T20:09:02.327Z,99584.13
2023-03-02T20:11:30.715Z,99587.19
2023-03-02T20:14:02.180Z,99589.81
2023-03-02T20:16:30.585Z,99601.66
2023-03-02T20:18:57.999Z,99605.81
2023-03-02T20:21:27.396Z,99598.06
2023-03-02T20:23:54.344Z,99595.59
2023-03-02T20:26:21.597Z,99607.31
2023-03-02T20:28:48.845Z,99607.44
2023-03-02T20:31:16.143Z,99606.88
2023-03-02T20:33:46.472Z,99608.06
2023-03-02T20:36:15.322Z,99600.88
2023-03-02T20:38:49.226Z,99602.53
2023-03-02T20:41:16.972Z,99615.31
2023-03-02T20:43:43.541Z,99616.97
2023-03-02T20:46:13.280Z,99617.53
2023-03-02T20:48:39.802Z,99611.91
2023-03-02T20:51:06.422Z,99616.94
2023-03-02T20:53:33.639Z,99622.03
2023-03-02T20:56:00.195Z,99617.78
2023-03-02T20:58:26.850Z,99630.50
2023-03-02T21:00:55.709Z,99621.56
2023-03-02T21:03:22.566Z,99624.56
2023-03-02T21:05:48.982Z,99620.38
2023-03-02T21:08:15.416Z,99626.09
2023-03-02T21:10:42.978Z,99631.38
2023-03-02T21:13:10.560Z,99629.63
2023-03-02T21:15:37.804Z,99632.88
2023-03-02T21:18:04.459Z,99630.59
2023-03-02T21:20:33.478Z,99639.53
2023-03-02T21:22:59.879Z,99634.41
2023-03-02T21:25:26.706Z,99632.78
2023-03-02T21:27:53.218Z,99635.47
2023-03-02T21:30:22.830Z,99642.81
2023-03-02T21:32:49.741Z,99633.59
2023-03-02T21:35:21.720Z,99637.78
2023-03-02T21:37:50.186Z,99641.81
2023-03-02T21:40:24.365Z,99643.22
2023-03-02T21:42:51.493Z,99633.22
2023-03-02T21:45:18.868Z,99632.47
2023-03-02T21:47:45.524Z,99624.97
2023-03-02T21:50:15.099Z,99627.00
2023-03-02T21:52:41.548Z,99637.81
2023-03-02T21:55:08.612Z,99633.47
2023-03-02T21:57:35.665Z,99629.06
2023-03-02T22:00:04.436Z,99624.47
2023-03-02T22:02:31.974Z,99620.31
2023-03-02T22:04:58.840Z,99627.38
2023-03-02T22:07:25.297Z,99625.09
2023-03-02T22:09:52.617Z,99615.84
2023-03-02T22:12:20.570Z,99622.53
2023-03-02T22:14:46.991Z,99620.78
2023-03-02T22:17:20.024Z,99622.16
2023-03-02T22:19:47.576Z,99614.69
2023-03-02T22:22:23.846Z,99615.06
2023-03-02T22:24:51.660Z,99613.16
2023-03-02T22:27:36.127Z,99610.63
2023-03-02T22:30:06.490Z,99610.34
2023-03-02T22:32:37.101Z,99611.63
2023-03-02T22:35:14.216Z,99604.00
2023-03-02T22:37:40.671Z,99609.09
2023-03-02T22:40:29.623Z,99604.78
2023-03-02T22:43:11.379Z,99610.31
2023-03-02T22:45:41.424Z,99612.72
2023-03-02T22:48:16.434Z,99612.19
2023-03-02T22:50:44.877Z,99611.91
2023-03-02T22:53:21.190Z,99615.09
2023-03-02T22:55:47.684Z,99616.72
2023-03-02T22:58:43.513Z,99613.84
2023-03-02T23:01:26.255Z,99622.69
2023-03-02T23:04:20.237Z,99619.22
2023-03-02T23:06:57.626Z,99621.00
2023-03-02T23:09:29.200Z,99620.38
2023-03-02T23:12:02.317Z,99618.69
2023-03-02T23:14:53.082Z,99618.25
2023-03-02T23:17:32.008Z,99622.03
2023-03-02T23:19:58.502Z,99616.97
2023-03-02T23:22:28.441Z,99623.47
2023-03-02T23:24:55.770Z,99614.22
2023-03-02T23:27:24.243Z,99619.00
2023-03-02T23:29:52.788Z,99627.94
2023-03-02T23:32:19.806Z,99621.34
2023-03-02T23:34:46.462Z,99626.50
2023-03-02T23:37:12.940Z,99619.25
2023-03-02T23:39:39.571Z,99618.44
2023-03-02T23:42:06.163Z,99625.09
2023-03-02T23:44:32.589Z,99620.28
2023-03-02T23:46:59.555Z,99620.47
2023-03-02T23:49:26.005Z,99621.16
2023-03-02T23:51:52.526Z,99625.75
2023-03-02T23:54:19.076Z,99623.22
2023-03-02T23:56:45.539Z,99622.94
2023-03-02T23:59:11.986Z,99614.81
